Main page
METAR-TAF:

METAR-TAF

Airports :

Independence Municipal Airport

Independence, Iowa, United States

latitude: 42-27N, longitude: 091-56W, elevation: 977 ft

Current weather observation

The report was made 23 minutes ago, at 08:55 UTC
Wind 8 mph from the West/Northwest
Temperature 28°F
Humidity 86%
Pressure 30.22 in. Hg
Visibility: 10 miles
Clear sky

METAR: KIIB 210855Z AUTO 29007KT 10SM CLR M02/M04 A3022 RMK AO2 T10201042

Time: 04:18 (09:18 UTC)


TAF: missing

Weather observations and forecasts of more than 4000 airports (METAR and TAF reports).

The available stations are represented by yellow and red dots on the map.

Hover mouse over dot to see the name of the station.

Then click to see weather observations and forecasts.

To change the map : click on the green buttons with a black cross to zoom in, on the green button with a dash to zoom out, or on the green arrows for adjacent maps.


METAR-TAF: